sensor_id;sensor_type;location;lat;lon;timestamp;pressure;altitude;pressure_sealevel;temperature
20289;BMP180;10303;51.960;8.372;2023-06-01T00:02:23;101132.00;;;16.10
20289;BMP180;10303;51.960;8.372;2023-06-01T00:04:49;101141.00;;;16.00
20289;BMP180;10303;51.960;8.372;2023-06-01T00:07:16;101140.00;;;15.90
20289;BMP180;10303;51.960;8.372;2023-06-01T00:09:42;101133.00;;;15.90
20289;BMP180;10303;51.960;8.372;2023-06-01T00:12:08;101141.00;;;15.80
20289;BMP180;10303;51.960;8.372;2023-06-01T00:14:35;101145.00;;;15.70
20289;BMP180;10303;51.960;8.372;2023-06-01T00:17:01;101143.00;;;15.70
20289;BMP180;10303;51.960;8.372;2023-06-01T00:19:29;101145.00;;;15.60
20289;BMP180;10303;51.960;8.372;2023-06-01T00:21:55;101144.00;;;15.60
20289;BMP180;10303;51.960;8.372;2023-06-01T00:24:23;101154.00;;;15.50
20289;BMP180;10303;51.960;8.372;2023-06-01T00:26:51;101156.00;;;15.40
20289;BMP180;10303;51.960;8.372;2023-06-01T00:29:17;101153.00;;;15.30
20289;BMP180;10303;51.960;8.372;2023-06-01T00:31:42;101161.00;;;15.30
20289;BMP180;10303;51.960;8.372;2023-06-01T00:34:10;101154.00;;;15.20
20289;BMP180;10303;51.960;8.372;2023-06-01T00:36:35;101163.00;;;15.10
20289;BMP180;10303;51.960;8.372;2023-06-01T00:39:02;101156.00;;;15.00
20289;BMP180;10303;51.960;8.372;2023-06-01T00:41:32;101151.00;;;15.00
20289;BMP180;10303;51.960;8.372;2023-06-01T00:43:58;101151.00;;;14.90
20289;BMP180;10303;51.960;8.372;2023-06-01T00:46:25;101155.00;;;14.80
20289;BMP180;10303;51.960;8.372;2023-06-01T00:48:54;101154.00;;;14.80
20289;BMP180;10303;51.960;8.372;2023-06-01T00:51:20;101151.00;;;14.70
20289;BMP180;10303;51.960;8.372;2023-06-01T00:53:46;101146.00;;;14.70
20289;BMP180;10303;51.960;8.372;2023-06-01T00:56:12;101141.00;;;14.60
20289;BMP180;10303;51.960;8.372;2023-06-01T00:58:40;101153.00;;;14.50
20289;BMP180;10303;51.960;8.372;2023-06-01T01:01:06;101150.00;;;14.50
20289;BMP180;10303;51.960;8.372;2023-06-01T01:03:34;101148.00;;;14.40
20289;BMP180;10303;51.960;8.372;2023-06-01T01:09:44;101153.00;;;14.20
20289;BMP180;10303;51.960;8.372;2023-06-01T01:12:32;101161.00;;;14.20
20289;BMP180;10303;51.960;8.372;2023-06-01T01:15:09;101164.00;;;14.10
20289;BMP180;10303;51.960;8.372;2023-06-01T01:17:42;101163.00;;;14.10
20289;BMP180;10303;51.960;8.372;2023-06-01T01:20:15;101166.00;;;14.00
20289;BMP180;10303;51.960;8.372;2023-06-01T01:23:26;101162.00;;;14.00
20289;BMP180;10303;51.960;8.372;2023-06-01T01:26:29;101162.00;;;14.00
20289;BMP180;10303;51.960;8.372;2023-06-01T01:29:09;101162.00;;;14.00
20289;BMP180;10303;51.960;8.372;2023-06-01T01:31:39;101157.00;;;14.00
20289;BMP180;10303;51.960;8.372;2023-06-01T01:34:08;101158.00;;;14.00
20289;BMP180;10303;51.960;8.372;2023-06-01T01:36:35;101155.00;;;13.90
20289;BMP180;10303;51.960;8.372;2023-06-01T01:39:03;101159.00;;;13.90
20289;BMP180;10303;51.960;8.372;2023-06-01T01:41:29;101144.00;;;13.90
20289;BMP180;10303;51.960;8.372;2023-06-01T01:43:57;101155.00;;;13.90
20289;BMP180;10303;51.960;8.372;2023-06-01T01:46:30;101159.00;;;13.80
20289;BMP180;10303;51.960;8.372;2023-06-01T01:49:30;101155.00;;;13.80
20289;BMP180;10303;51.960;8.372;2023-06-01T01:52:18;101162.00;;;13.70
20289;BMP180;10303;51.960;8.372;2023-06-01T01:54:50;101156.00;;;13.80
20289;BMP180;10303;51.960;8.372;2023-06-01T01:57:18;101153.00;;;13.70
20289;BMP180;10303;51.960;8.372;2023-06-01T01:59:50;101160.00;;;13.70
20289;BMP180;10303;51.960;8.372;2023-06-01T02:02:17;101164.00;;;13.70
20289;BMP180;10303;51.960;8.372;2023-06-01T02:04:44;101161.00;;;13.70
20289;BMP180;10303;51.960;8.372;2023-06-01T02:07:12;101157.00;;;13.70
20289;BMP180;10303;51.960;8.372;2023-06-01T02:09:40;101157.00;;;13.60
20289;BMP180;10303;51.960;8.372;2023-06-01T02:12:08;101148.00;;;13.60
20289;BMP180;10303;51.960;8.372;2023-06-01T02:14:34;101147.00;;;13.60
20289;BMP180;10303;51.960;8.372;2023-06-01T02:17:00;101145.00;;;13.70
20289;BMP180;10303;51.960;8.372;2023-06-01T02:19:27;101153.00;;;13.70
20289;BMP180;10303;51.960;8.372;2023-06-01T02:21:53;101150.00;;;13.70
20289;BMP180;10303;51.960;8.372;2023-06-01T02:24:19;101159.00;;;13.70
20289;BMP180;10303;51.960;8.372;2023-06-01T02:26:46;101149.00;;;13.70
20289;BMP180;10303;51.960;8.372;2023-06-01T02:29:14;101146.00;;;13.80
20289;BMP180;10303;51.960;8.372;2023-06-01T02:31:41;101141.00;;;13.80
20289;BMP180;10303;51.960;8.372;2023-06-01T02:34:07;101146.00;;;13.80
20289;BMP180;10303;51.960;8.372;2023-06-01T02:36:33;101152.00;;;13.80
20289;BMP180;10303;51.960;8.372;2023-06-01T02:39:00;101157.00;;;13.80
20289;BMP180;10303;51.960;8.372;2023-06-01T02:41:26;101154.00;;;13.80
20289;BMP180;10303;51.960;8.372;2023-06-01T02:43:52;101145.00;;;13.80
20289;BMP180;10303;51.960;8.372;2023-06-01T02:46:19;101144.00;;;13.90
20289;BMP180;10303;51.960;8.372;2023-06-01T02:48:46;101147.00;;;13.90
20289;BMP180;10303;51.960;8.372;2023-06-01T02:51:12;101156.00;;;13.90
20289;BMP180;10303;51.960;8.372;2023-06-01T02:53:40;101153.00;;;13.90
20289;BMP180;10303;51.960;8.372;2023-06-01T02:56:09;101155.00;;;13.90
20289;BMP180;10303;51.960;8.372;2023-06-01T02:58:46;101163.00;;;13.90
20289;BMP180;10303;51.960;8.372;2023-06-01T03:01:23;101165.00;;;13.90
20289;BMP180;10303;51.960;8.372;2023-06-01T03:03:49;101162.00;;;14.00
20289;BMP180;10303;51.960;8.372;2023-06-01T03:06:18;101156.00;;;14.00
20289;BMP180;10303;51.960;8.372;2023-06-01T03:09:15;101155.00;;;14.00
20289;BMP180;10303;51.960;8.372;2023-06-01T03:11:54;101154.00;;;14.10
20289;BMP180;10303;51.960;8.372;2023-06-01T03:14:20;101146.00;;;14.10
20289;BMP180;10303;51.960;8.372;2023-06-01T03:16:47;101148.00;;;14.10
20289;BMP180;10303;51.960;8.372;2023-06-01T03:19:16;101145.00;;;14.10
20289;BMP180;10303;51.960;8.372;2023-06-01T03:21:44;101140.00;;;14.10
20289;BMP180;10303;51.960;8.372;2023-06-01T03:24:12;101141.00;;;14.10
20289;BMP180;10303;51.960;8.372;2023-06-01T03:26:38;101152.00;;;14.20
20289;BMP180;10303;51.960;8.372;2023-06-01T03:29:04;101157.00;;;14.10
20289;BMP180;10303;51.960;8.372;2023-06-01T03:31:33;101145.00;;;14.20
20289;BMP180;10303;51.960;8.372;2023-06-01T03:34:01;101144.00;;;14.20
20289;BMP180;10303;51.960;8.372;2023-06-01T03:36:27;101138.00;;;14.20
20289;BMP180;10303;51.960;8.372;2023-06-01T03:38:54;101129.00;;;14.20
20289;BMP180;10303;51.960;8.372;2023-06-01T03:41:22;101131.00;;;14.10
20289;BMP180;10303;51.960;8.372;2023-06-01T03:43:48;101131.00;;;14.10
20289;BMP180;10303;51.960;8.372;2023-06-01T03:46:15;101124.00;;;14.10
20289;BMP180;10303;51.960;8.372;2023-06-01T03:48:41;101141.00;;;14.10
20289;BMP180;10303;51.960;8.372;2023-06-01T03:51:08;101135.00;;;14.20
20289;BMP180;10303;51.960;8.372;2023-06-01T03:53:34;101137.00;;;14.20
20289;BMP180;10303;51.960;8.372;2023-06-01T03:56:01;101136.00;;;14.20
20289;BMP180;10303;51.960;8.372;2023-06-01T03:58:35;101142.00;;;14.20
20289;BMP180;10303;51.960;8.372;2023-06-01T04:01:01;101141.00;;;14.20
20289;BMP180;10303;51.960;8.372;2023-06-01T04:03:29;101142.00;;;14.20
20289;BMP180;10303;51.960;8.372;2023-06-01T04:05:56;101148.00;;;14.20
20289;BMP180;10303;51.960;8.372;2023-06-01T04:08:26;101142.00;;;14.20
20289;BMP180;10303;51.960;8.372;2023-06-01T04:10:53;101152.00;;;14.20
20289;BMP180;10303;51.960;8.372;2023-06-01T04:13:19;101152.00;;;14.20
20289;BMP180;10303;51.960;8.372;2023-06-01T04:15:46;101142.00;;;14.20
20289;BMP180;10303;51.960;8.372;2023-06-01T04:18:13;101148.00;;;14.30
20289;BMP180;10303;51.960;8.372;2023-06-01T04:20:56;101147.00;;;14.30
20289;BMP180;10303;51.960;8.372;2023-06-01T04:23:23;101150.00;;;14.30
20289;BMP180;10303;51.960;8.372;2023-06-01T04:25:51;101151.00;;;14.30
20289;BMP180;10303;51.960;8.372;2023-06-01T04:28:18;101149.00;;;14.40
20289;BMP180;10303;51.960;8.372;2023-06-01T04:30:44;101150.00;;;14.40
20289;BMP180;10303;51.960;8.372;2023-06-01T04:33:13;101141.00;;;14.40
20289;BMP180;10303;51.960;8.372;2023-06-01T04:35:39;101138.00;;;14.50
20289;BMP180;10303;51.960;8.372;2023-06-01T04:38:06;101137.00;;;14.50
20289;BMP180;10303;51.960;8.372;2023-06-01T04:40:35;101134.00;;;14.50
20289;BMP180;10303;51.960;8.372;2023-06-01T04:43:01;101138.00;;;14.60
20289;BMP180;10303;51.960;8.372;2023-06-01T04:45:30;101133.00;;;14.60
20289;BMP180;10303;51.960;8.372;2023-06-01T04:47:57;101142.00;;;14.60
20289;BMP180;10303;51.960;8.372;2023-06-01T04:50:38;101140.00;;;14.70
20289;BMP180;10303;51.960;8.372;2023-06-01T04:53:06;101140.00;;;14.70
20289;BMP180;10303;51.960;8.372;2023-06-01T04:55:32;101139.00;;;14.70
20289;BMP180;10303;51.960;8.372;2023-06-01T04:57:58;101137.00;;;14.70
20289;BMP180;10303;51.960;8.372;2023-06-01T05:00:24;101137.00;;;14.70
20289;BMP180;10303;51.960;8.372;2023-06-01T05:02:51;101141.00;;;14.70
20289;BMP180;10303;51.960;8.372;2023-06-01T05:05:19;101139.00;;;14.70
20289;BMP180;10303;51.960;8.372;2023-06-01T05:07:46;101138.00;;;14.70
20289;BMP180;10303;51.960;8.372;2023-06-01T05:10:12;101135.00;;;14.70
20289;BMP180;10303;51.960;8.372;2023-06-01T05:12:42;101146.00;;;14.70
20289;BMP180;10303;51.960;8.372;2023-06-01T05:15:09;101141.00;;;14.80
20289;BMP180;10303;51.960;8.372;2023-06-01T05:17:37;101132.00;;;14.80
20289;BMP180;10303;51.960;8.372;2023-06-01T05:20:10;101139.00;;;14.80
20289;BMP180;10303;51.960;8.372;2023-06-01T05:22:38;101142.00;;;14.80
20289;BMP180;10303;51.960;8.372;2023-06-01T05:25:05;101142.00;;;14.80
20289;BMP180;10303;51.960;8.372;2023-06-01T05:27:32;101134.00;;;14.90
20289;BMP180;10303;51.960;8.372;2023-06-01T05:29:58;101142.00;;;14.90
20289;BMP180;10303;51.960;8.372;2023-06-01T05:32:25;101143.00;;;14.90
20289;BMP180;10303;51.960;8.372;2023-06-01T05:34:52;101157.00;;;14.90
20289;BMP180;10303;51.960;8.372;2023-06-01T05:37:19;101151.00;;;14.90
20289;BMP180;10303;51.960;8.372;2023-06-01T05:39:45;101143.00;;;15.00
20289;BMP180;10303;51.960;8.372;2023-06-01T05:42:12;101141.00;;;15.00
20289;BMP180;10303;51.960;8.372;2023-06-01T05:44:39;101145.00;;;15.00
20289;BMP180;10303;51.960;8.372;2023-06-01T05:47:06;101142.00;;;15.10
20289;BMP180;10303;51.960;8.372;2023-06-01T05:49:35;101147.00;;;15.10
20289;BMP180;10303;51.960;8.372;2023-06-01T05:52:01;101149.00;;;15.20
20289;BMP180;10303;51.960;8.372;2023-06-01T05:54:28;101148.00;;;15.20
20289;BMP180;10303;51.960;8.372;2023-06-01T05:56:55;101144.00;;;15.30
20289;BMP180;10303;51.960;8.372;2023-06-01T05:59:22;101154.00;;;15.30
20289;BMP180;10303;51.960;8.372;2023-06-01T06:01:49;101146.00;;;15.30
20289;BMP180;10303;51.960;8.372;2023-06-01T06:04:14;101156.00;;;15.30
20289;BMP180;10303;51.960;8.372;2023-06-01T06:06:40;101152.00;;;15.30
20289;BMP180;10303;51.960;8.372;2023-06-01T06:09:06;101151.00;;;15.30
20289;BMP180;10303;51.960;8.372;2023-06-01T06:11:33;101161.00;;;15.40
20289;BMP180;10303;51.960;8.372;2023-06-01T06:13:59;101155.00;;;15.40
20289;BMP180;10303;51.960;8.372;2023-06-01T06:16:25;101157.00;;;15.40
20289;BMP180;10303;51.960;8.372;2023-06-01T06:18:51;101152.00;;;15.50
20289;BMP180;10303;51.960;8.372;2023-06-01T06:21:17;101155.00;;;15.50
20289;BMP180;10303;51.960;8.372;2023-06-01T06:23:43;101146.00;;;15.50
20289;BMP180;10303;51.960;8.372;2023-06-01T06:26:11;101150.00;;;15.60
20289;BMP180;10303;51.960;8.372;2023-06-01T06:28:37;101158.00;;;15.60
20289;BMP180;10303;51.960;8.372;2023-06-01T06:31:03;101154.00;;;15.60
20289;BMP180;10303;51.960;8.372;2023-06-01T06:33:29;101158.00;;;15.60
20289;BMP180;10303;51.960;8.372;2023-06-01T06:35:56;101158.00;;;15.60
20289;BMP180;10303;51.960;8.372;2023-06-01T06:38:21;101161.00;;;15.60
20289;BMP180;10303;51.960;8.372;2023-06-01T06:40:48;101159.00;;;15.70
20289;BMP180;10303;51.960;8.372;2023-06-01T06:43:13;101164.00;;;15.70
20289;BMP180;10303;51.960;8.372;2023-06-01T06:45:41;101172.00;;;15.80
20289;BMP180;10303;51.960;8.372;2023-06-01T06:48:07;101162.00;;;15.80
20289;BMP180;10303;51.960;8.372;2023-06-01T06:50:33;101157.00;;;15.80
20289;BMP180;10303;51.960;8.372;2023-06-01T06:52:59;101154.00;;;15.90
20289;BMP180;10303;51.960;8.372;2023-06-01T06:55:27;101164.00;;;15.90
20289;BMP180;10303;51.960;8.372;2023-06-01T06:57:53;101170.00;;;16.00
20289;BMP180;10303;51.960;8.372;2023-06-01T07:00:20;101165.00;;;16.00
20289;BMP180;10303;51.960;8.372;2023-06-01T07:02:46;101166.00;;;16.00
20289;BMP180;10303;51.960;8.372;2023-06-01T07:05:13;101175.00;;;16.00
20289;BMP180;10303;51.960;8.372;2023-06-01T07:07:41;101169.00;;;16.00
20289;BMP180;10303;51.960;8.372;2023-06-01T07:10:07;101166.00;;;16.00
20289;BMP180;10303;51.960;8.372;2023-06-01T07:12:33;101165.00;;;16.00
20289;BMP180;10303;51.960;8.372;2023-06-01T07:15:00;101165.00;;;16.10
20289;BMP180;10303;51.960;8.372;2023-06-01T07:17:26;101164.00;;;16.10
20289;BMP180;10303;51.960;8.372;2023-06-01T07:19:52;101158.00;;;16.10
20289;BMP180;10303;51.960;8.372;2023-06-01T07:22:18;101158.00;;;16.10
20289;BMP180;10303;51.960;8.372;2023-06-01T07:24:46;101166.00;;;16.10
20289;BMP180;10303;51.960;8.372;2023-06-01T07:27:14;101165.00;;;16.10
20289;BMP180;10303;51.960;8.372;2023-06-01T07:29:40;101165.00;;;16.20
20289;BMP180;10303;51.960;8.372;2023-06-01T07:32:07;101164.00;;;16.20
20289;BMP180;10303;51.960;8.372;2023-06-01T07:34:33;101157.00;;;16.20
20289;BMP180;10303;51.960;8.372;2023-06-01T07:37:01;101158.00;;;16.20
20289;BMP180;10303;51.960;8.372;2023-06-01T07:39:29;101151.00;;;16.30
20289;BMP180;10303;51.960;8.372;2023-06-01T07:41:56;101159.00;;;16.30
20289;BMP180;10303;51.960;8.372;2023-06-01T07:44:22;101153.00;;;16.40
20289;BMP180;10303;51.960;8.372;2023-06-01T07:46:49;101152.00;;;16.40
20289;BMP180;10303;51.960;8.372;2023-06-01T07:49:15;101144.00;;;16.40
20289;BMP180;10303;51.960;8.372;2023-06-01T07:51:42;101152.00;;;16.40
20289;BMP180;10303;51.960;8.372;2023-06-01T07:54:09;101155.00;;;16.40
20289;BMP180;10303;51.960;8.372;2023-06-01T07:56:35;101154.00;;;16.30
20289;BMP180;10303;51.960;8.372;2023-06-01T07:59:02;101149.00;;;16.40
20289;BMP180;10303;51.960;8.372;2023-06-01T08:01:28;101152.00;;;16.40
20289;BMP180;10303;51.960;8.372;2023-06-01T08:03:54;101147.00;;;16.40
20289;BMP180;10303;51.960;8.372;2023-06-01T08:06:21;101159.00;;;16.40
20289;BMP180;10303;51.960;8.372;2023-06-01T08:08:52;101156.00;;;16.40
20289;BMP180;10303;51.960;8.372;2023-06-01T08:11:18;101166.00;;;16.40
20289;BMP180;10303;51.960;8.372;2023-06-01T08:13:45;101160.00;;;16.50
20289;BMP180;10303;51.960;8.372;2023-06-01T08:16:14;101165.00;;;16.50
20289;BMP180;10303;51.960;8.372;2023-06-01T08:18:40;101161.00;;;16.60
20289;BMP180;10303;51.960;8.372;2023-06-01T08:21:06;101160.00;;;16.60
20289;BMP180;10303;51.960;8.372;2023-06-01T08:23:34;101161.00;;;16.60
20289;BMP180;10303;51.960;8.372;2023-06-01T08:26:01;101165.00;;;16.70
20289;BMP180;10303;51.960;8.372;2023-06-01T08:28:27;101154.00;;;16.70
20289;BMP180;10303;51.960;8.372;2023-06-01T08:30:53;101154.00;;;16.70
20289;BMP180;10303;51.960;8.372;2023-06-01T08:33:19;101149.00;;;16.80
20289;BMP180;10303;51.960;8.372;2023-06-01T08:35:45;101155.00;;;16.80
20289;BMP180;10303;51.960;8.372;2023-06-01T08:38:11;101157.00;;;16.90
20289;BMP180;10303;51.960;8.372;2023-06-01T08:40:37;101158.00;;;16.90
20289;BMP180;10303;51.960;8.372;2023-06-01T08:43:20;101162.00;;;16.90
20289;BMP180;10303;51.960;8.372;2023-06-01T08:45:46;101160.00;;;17.00
20289;BMP180;10303;51.960;8.372;2023-06-01T08:48:18;101163.00;;;17.10
20289;BMP180;10303;51.960;8.372;2023-06-01T08:50:49;101157.00;;;17.10
20289;BMP180;10303;51.960;8.372;2023-06-01T08:53:19;101152.00;;;17.10
20289;BMP180;10303;51.960;8.372;2023-06-01T08:55:55;101158.00;;;17.10
20289;BMP180;10303;51.960;8.372;2023-06-01T08:58:21;101152.00;;;17.20
20289;BMP180;10303;51.960;8.372;2023-06-01T09:00:50;101157.00;;;17.20
20289;BMP180;10303;51.960;8.372;2023-06-01T09:03:16;101156.00;;;17.20
20289;BMP180;10303;51.960;8.372;2023-06-01T09:05:42;101155.00;;;17.30
20289;BMP180;10303;51.960;8.372;2023-06-01T09:08:09;101146.00;;;17.30
20289;BMP180;10303;51.960;8.372;2023-06-01T09:10:36;101142.00;;;17.30
20289;BMP180;10303;51.960;8.372;2023-06-01T09:13:02;101147.00;;;17.30
20289;BMP180;10303;51.960;8.372;2023-06-01T09:15:29;101148.00;;;17.40
20289;BMP180;10303;51.960;8.372;2023-06-01T09:18:13;101142.00;;;17.40
20289;BMP180;10303;51.960;8.372;2023-06-01T09:20:40;101145.00;;;17.50
20289;BMP180;10303;51.960;8.372;2023-06-01T09:23:07;101142.00;;;17.50
20289;BMP180;10303;51.960;8.372;2023-06-01T09:25:34;101136.00;;;17.60
20289;BMP180;10303;51.960;8.372;2023-06-01T09:28:02;101139.00;;;17.60
20289;BMP180;10303;51.960;8.372;2023-06-01T09:30:43;101140.00;;;17.60
20289;BMP180;10303;51.960;8.372;2023-06-01T09:33:16;101137.00;;;17.70
20289;BMP180;10303;51.960;8.372;2023-06-01T09:35:48;101131.00;;;17.70
20289;BMP180;10303;51.960;8.372;2023-06-01T09:38:25;101120.00;;;17.70
20289;BMP180;10303;51.960;8.372;2023-06-01T09:41:03;101120.00;;;17.60
20289;BMP180;10303;51.960;8.372;2023-06-01T09:43:33;101118.00;;;17.70
20289;BMP180;10303;51.960;8.372;2023-06-01T09:46:07;101116.00;;;17.70
20289;BMP180;10303;51.960;8.372;2023-06-01T09:48:33;101120.00;;;17.70
20289;BMP180;10303;51.960;8.372;2023-06-01T09:50:59;101106.00;;;17.80
20289;BMP180;10303;51.960;8.372;2023-06-01T09:53:26;101116.00;;;17.80
20289;BMP180;10303;51.960;8.372;2023-06-01T09:56:00;101113.00;;;17.80
20289;BMP180;10303;51.960;8.372;2023-06-01T09:58:26;101100.00;;;17.90
20289;BMP180;10303;51.960;8.372;2023-06-01T10:00:53;101109.00;;;17.90
20289;BMP180;10303;51.960;8.372;2023-06-01T10:03:22;101113.00;;;18.00
20289;BMP180;10303;51.960;8.372;2023-06-01T10:05:49;101109.00;;;18.00
20289;BMP180;10303;51.960;8.372;2023-06-01T10:08:17;101104.00;;;18.00
20289;BMP180;10303;51.960;8.372;2023-06-01T10:10:47;101099.00;;;18.10
20289;BMP180;10303;51.960;8.372;2023-06-01T10:13:14;101106.00;;;18.10
20289;BMP180;10303;51.960;8.372;2023-06-01T10:15:41;101106.00;;;18.20
20289;BMP180;10303;51.960;8.372;2023-06-01T10:18:07;101112.00;;;18.30
20289;BMP180;10303;51.960;8.372;2023-06-01T10:20:38;101107.00;;;18.30
20289;BMP180;10303;51.960;8.372;2023-06-01T10:23:06;101110.00;;;18.40
20289;BMP180;10303;51.960;8.372;2023-06-01T10:25:44;101094.00;;;18.40
20289;BMP180;10303;51.960;8.372;2023-06-01T10:28:13;101103.00;;;18.40
20289;BMP180;10303;51.960;8.372;2023-06-01T10:30:40;101093.00;;;18.50
20289;BMP180;10303;51.960;8.372;2023-06-01T10:33:06;101107.00;;;18.50
20289;BMP180;10303;51.960;8.372;2023-06-01T10:40:44;101088.00;;;18.50
20289;BMP180;10303;51.960;8.372;2023-06-01T10:46:39;101095.00;;;18.40
20289;BMP180;10303;51.960;8.372;2023-06-01T10:49:06;101089.00;;;18.40
20289;BMP180;10303;51.960;8.372;2023-06-01T10:51:32;101100.00;;;18.50
20289;BMP180;10303;51.960;8.372;2023-06-01T10:54:26;101099.00;;;18.50
20289;BMP180;10303;51.960;8.372;2023-06-01T10:57:22;101088.00;;;18.50
20289;BMP180;10303;51.960;8.372;2023-06-01T11:00:20;101095.00;;;18.50
20289;BMP180;10303;51.960;8.372;2023-06-01T11:03:03;101089.00;;;18.50
20289;BMP180;10303;51.960;8.372;2023-06-01T11:05:49;101090.00;;;18.50
20289;BMP180;10303;51.960;8.372;2023-06-01T11:13:36;101087.00;;;18.60
20289;BMP180;10303;51.960;8.372;2023-06-01T11:19:01;101087.00;;;18.60
20289;BMP180;10303;51.960;8.372;2023-06-01T11:21:31;101082.00;;;18.60
20289;BMP180;10303;51.960;8.372;2023-06-01T11:24:04;101079.00;;;18.60
20289;BMP180;10303;51.960;8.372;2023-06-01T11:26:35;101078.00;;;18.60
20289;BMP180;10303;51.960;8.372;2023-06-01T11:29:19;101078.00;;;18.70
20289;BMP180;10303;51.960;8.372;2023-06-01T11:31:49;101087.00;;;18.80
20289;BMP180;10303;51.960;8.372;2023-06-01T11:34:18;101085.00;;;18.80
20289;BMP180;10303;51.960;8.372;2023-06-01T11:36:49;101073.00;;;18.80
20289;BMP180;10303;51.960;8.372;2023-06-01T11:39:22;101082.00;;;18.80
20289;BMP180;10303;51.960;8.372;2023-06-01T11:41:51;101074.00;;;18.80
20289;BMP180;10303;51.960;8.372;2023-06-01T11:44:18;101079.00;;;18.80
20289;BMP180;10303;51.960;8.372;2023-06-01T11:46:56;101079.00;;;18.70
20289;BMP180;10303;51.960;8.372;2023-06-01T11:49:23;101078.00;;;18.70
20289;BMP180;10303;51.960;8.372;2023-06-01T11:51:50;101079.00;;;18.70
20289;BMP180;10303;51.960;8.372;2023-06-01T11:54:22;101083.00;;;18.70
20289;BMP180;10303;51.960;8.372;2023-06-01T11:56:48;101066.00;;;18.80
20289;BMP180;10303;51.960;8.372;2023-06-01T11:59:14;101067.00;;;18.80
20289;BMP180;10303;51.960;8.372;2023-06-01T12:01:46;101070.00;;;18.80
20289;BMP180;10303;51.960;8.372;2023-06-01T12:04:23;101065.00;;;18.80
20289;BMP180;10303;51.960;8.372;2023-06-01T12:07:03;101065.00;;;18.80
20289;BMP180;10303;51.960;8.372;2023-06-01T12:09:31;101068.00;;;18.90
20289;BMP180;10303;51.960;8.372;2023-06-01T12:11:57;101064.00;;;18.80
20289;BMP180;10303;51.960;8.372;2023-06-01T12:14:23;101064.00;;;18.90
20289;BMP180;10303;51.960;8.372;2023-06-01T12:16:59;101063.00;;;18.90
20289;BMP180;10303;51.960;8.372;2023-06-01T12:19:28;101068.00;;;18.90
20289;BMP180;10303;51.960;8.372;2023-06-01T12:21:58;101058.00;;;19.00
20289;BMP180;10303;51.960;8.372;2023-06-01T12:24:33;101063.00;;;19.00
20289;BMP180;10303;51.960;8.372;2023-06-01T12:27:01;101056.00;;;19.10
20289;BMP180;10303;51.960;8.372;2023-06-01T12:29:46;101064.00;;;19.00
20289;BMP180;10303;51.960;8.372;2023-06-01T12:32:14;101058.00;;;19.10
20289;BMP180;10303;51.960;8.372;2023-06-01T12:35:02;101055.00;;;19.10
20289;BMP180;10303;51.960;8.372;2023-06-01T12:37:28;101060.00;;;19.10
20289;BMP180;10303;51.960;8.372;2023-06-01T12:39:56;101064.00;;;19.20
20289;BMP180;10303;51.960;8.372;2023-06-01T12:42:37;101066.00;;;19.20
20289;BMP180;10303;51.960;8.372;2023-06-01T12:45:08;101074.00;;;19.20
20289;BMP180;10303;51.960;8.372;2023-06-01T12:47:39;101065.00;;;19.10
20289;BMP180;10303;51.960;8.372;2023-06-01T12:50:08;101062.00;;;19.10
20289;BMP180;10303;51.960;8.372;2023-06-01T12:52:36;101057.00;;;19.10
20289;BMP180;10303;51.960;8.372;2023-06-01T12:55:03;101057.00;;;19.10
20289;BMP180;10303;51.960;8.372;2023-06-01T12:57:31;101056.00;;;19.10
20289;BMP180;10303;51.960;8.372;2023-06-01T12:59:57;101053.00;;;19.10
20289;BMP180;10303;51.960;8.372;2023-06-01T13:02:24;101059.00;;;19.10
20289;BMP180;10303;51.960;8.372;2023-06-01T13:04:50;101057.00;;;19.10
20289;BMP180;10303;51.960;8.372;2023-06-01T13:07:16;101051.00;;;19.20
20289;BMP180;10303;51.960;8.372;2023-06-01T13:09:45;101051.00;;;19.20
20289;BMP180;10303;51.960;8.372;2023-06-01T13:12:11;101057.00;;;19.30
20289;BMP180;10303;51.960;8.372;2023-06-01T13:14:38;101054.00;;;19.30
20289;BMP180;10303;51.960;8.372;2023-06-01T13:17:04;101047.00;;;19.40
20289;BMP180;10303;51.960;8.372;2023-06-01T13:19:30;101039.00;;;19.40
20289;BMP180;10303;51.960;8.372;2023-06-01T13:21:57;101042.00;;;19.50
20289;BMP180;10303;51.960;8.372;2023-06-01T13:24:23;101040.00;;;19.50
20289;BMP180;10303;51.960;8.372;2023-06-01T13:26:50;101035.00;;;19.60
20289;BMP180;10303;51.960;8.372;2023-06-01T13:29:15;101036.00;;;19.70
20289;BMP180;10303;51.960;8.372;2023-06-01T13:31:41;101043.00;;;19.80
20289;BMP180;10303;51.960;8.372;2023-06-01T13:34:07;101037.00;;;19.90
20289;BMP180;10303;51.960;8.372;2023-06-01T13:36:33;101024.00;;;20.00
20289;BMP180;10303;51.960;8.372;2023-06-01T13:39:00;101031.00;;;20.00
20289;BMP180;10303;51.960;8.372;2023-06-01T13:41:26;101020.00;;;20.00
20289;BMP180;10303;51.960;8.372;2023-06-01T13:43:52;101027.00;;;20.10
20289;BMP180;10303;51.960;8.372;2023-06-01T13:46:18;101025.00;;;20.10
20289;BMP180;10303;51.960;8.372;2023-06-01T13:48:44;101020.00;;;20.10
20289;BMP180;10303;51.960;8.372;2023-06-01T13:51:10;101029.00;;;20.10
20289;BMP180;10303;51.960;8.372;2023-06-01T13:53:36;101020.00;;;20.10
20289;BMP180;10303;51.960;8.372;2023-06-01T13:56:03;101020.00;;;20.10
20289;BMP180;10303;51.960;8.372;2023-06-01T13:58:29;101016.00;;;20.10
20289;BMP180;10303;51.960;8.372;2023-06-01T14:00:55;101023.00;;;20.10
20289;BMP180;10303;51.960;8.372;2023-06-01T14:03:21;101019.00;;;20.10
20289;BMP180;10303;51.960;8.372;2023-06-01T14:05:46;101026.00;;;20.10
20289;BMP180;10303;51.960;8.372;2023-06-01T14:08:12;101022.00;;;20.10
20289;BMP180;10303;51.960;8.372;2023-06-01T14:10:38;101021.00;;;20.10
20289;BMP180;10303;51.960;8.372;2023-06-01T14:13:04;101015.00;;;20.10
20289;BMP180;10303;51.960;8.372;2023-06-01T14:15:30;101013.00;;;20.10
20289;BMP180;10303;51.960;8.372;2023-06-01T14:17:56;101011.00;;;20.20
20289;BMP180;10303;51.960;8.372;2023-06-01T14:20:22;101006.00;;;20.10
20289;BMP180;10303;51.960;8.372;2023-06-01T14:22:49;101007.00;;;20.10
20289;BMP180;10303;51.960;8.372;2023-06-01T14:25:15;101007.00;;;20.10
20289;BMP180;10303;51.960;8.372;2023-06-01T14:27:40;101011.00;;;20.20